Latest Weather Observations for Sydney Airport

IDN60901

Issued at 7:55 pm EST Wednesday 23 July 2014 (issued every 10 minutes, with the page automatically refreshed every 10 minutes)

About weather observations | Map of Sydney area stations | Latest observations for Sydney area | Other Formats
Station Details ID: 066037 Name: SYDNEY AIRPORT AMO Lat: -33.95 Lon: 151.17 Height: 6.0 m
Data from the previous 72 hours. | See also: Recent months at Sydney Airport
Date/Time
EST
Tmp

°C
App
Tmp
°C
Dew
Point
°C
Rel
Hum
%
Delta-T

°C
Wind Press
QNH
hPa
Press
MSL
hPa
Rain
since
9 am
mm
Dir
 
Spd
km/h
Gust
km/h
Spd
kts
Gust
kts
23/07:30pm 14.1 11.9 9.2 72 2.5 ENE 11 13 6 7 1022.5 - 0.0
23/07:00pm 14.6 12.3 8.9 68 2.9 ENE 11 13 6 7 1022.3 1022.3 0.0
23/06:30pm 14.5 11.8 9.0 69 2.8 E 13 15 7 8 1022.3 - 0.0
23/06:00pm 14.5 12.2 9.0 69 2.8 E 11 13 6 7 1022.3 1022.3 0.0
23/05:30pm 14.4 11.7 8.9 69 2.8 E 13 15 7 8 1022.0 - 0.0
23/05:00pm 14.8 12.0 8.7 67 3.1 E 13 15 7 8 1021.8 1021.8 0.0
23/04:30pm 15.2 12.0 8.4 64 3.4 E 15 17 8 9 1021.7 - 0.0
23/04:00pm 15.7 12.4 7.9 59 3.9 E 15 19 8 10 1021.6 1021.6 0.0
23/03:30pm 16.6 13.2 7.8 56 4.4 ESE 15 19 8 10 1021.6 - 0.0
23/03:00pm 16.9 14.0 8.0 55 4.5 ESE 13 17 7 9 1021.5 1021.5 0.0
23/02:30pm 15.9 12.6 8.1 60 3.9 SE 15 19 8 10 1021.6 - 0.0
23/02:00pm 15.9 12.8 7.4 57 4.2 SE 13 17 7 9 1021.8 1021.8 0.0
23/01:30pm 16.6 13.6 7.6 55 4.5 ESE 13 17 7 9 1022.1 - 0.0
23/01:00pm 15.9 13.3 7.7 58 4.1 SSE 11 13 6 7 1022.5 1022.5 0.0
23/12:30pm 14.9 12.9 10.1 73 2.5 SSE 11 15 6 8 1023.0 - 0.0
23/12:00pm 15.9 13.6 9.1 64 3.5 SSE 11 13 6 7 1023.6 1023.6 0.0
23/11:30am 15.1 13.6 9.2 68 3.0 SSW 7 11 4 6 1024.4 - 0.0
23/11:00am 15.5 13.7 9.5 67 3.1 W 9 17 5 9 1024.9 1024.9 0.0
23/10:30am 16.0 14.1 9.2 64 3.5 WNW 9 13 5 7 1025.3 - 0.0
23/10:00am 15.1 12.7 8.5 64 3.3 NW 11 17 6 9 1025.5 1025.5 0.0
23/09:30am 13.8 11.7 8.4 70 2.7 NNW 9 15 5 8 1025.5 - 0.0
23/09:00am 13.6 10.8 8.4 71 2.6 NW 13 17 7 9 1025.4 1025.4 0.0
23/08:30am 12.3 9.7 7.8 74 2.2 NW 11 15 6 8 1025.1 - 0.0
23/08:00am 10.4 7.3 7.2 80 1.5 NNW 13 17 7 9 1025.0 1025.0 0.0
23/07:30am 10.6 8.2 7.2 79 1.6 N 9 13 5 7 1024.8 - 0.0
23/07:00am 9.9 6.8 7.4 84 1.2 NW 13 15 7 8 1024.4 1024.4 0.0
23/06:30am 9.4 6.7 7.5 88 0.9 NNW 11 13 6 7 1024.0 - 0.0
23/06:00am 9.2 6.2 7.5 89 0.8 NNW 13 13 7 7 1023.8 1023.8 0.0
23/05:30am 9.7 7.5 7.8 88 0.9 NNW 9 11 5 6 1023.4 - 0.0
23/05:00am 9.5 7.0 8.0 90 0.7 NNW 11 13 6 7 1023.2 1023.2 0.0
23/04:30am 9.3 6.7 7.8 90 0.7 NW 11 15 6 8 1023.2 - 0.0
23/04:00am 9.4 6.5 8.1 92 0.6 NW 13 15 7 8 1023.0 1023.0 0.0
23/03:30am 9.6 6.8 8.4 92 0.6 NNW 13 13 7 7 1023.1 - 0.0
23/03:00am 10.0 7.5 8.3 89 0.8 N 11 13 6 7 1023.5 1023.5 0.0
23/02:30am 10.3 7.2 8.7 90 0.8 N 15 15 8 8 1023.7 - 0.0
23/02:00am 10.9 9.3 8.9 87 1.0 N 7 9 4 5 1023.6 1023.6 0.0
23/01:30am 11.1 9.8 9.3 89 0.9 N 6 7 3 4 1023.8 - 0.0
23/01:00am 11.8 10.0 9.4 85 1.2 N 9 9 5 5 1023.7 1023.7 0.0
23/12:30am 11.8 9.9 9.2 84 1.3 W 9 11 5 6 1023.8 - 0.0
 
Date/Time
EST
Tmp

°C
App
Tmp
°C
Dew
Point
°C
Rel
Hum
%
Delta-T

°C
Wind Press
QNH
hPa
Press
MSL
hPa
Rain
since
9 am
mm
Dir
 
Spd
km/h
Gust
km/h
Spd
kts
Gust
kts
22/11:30pm 11.3 8.8 8.4 82 1.4 NNW 11 11 6 6 1024.0 - 0.0
22/11:00pm 12.2 9.8 8.8 80 1.7 WNW 11 13 6 7 1024.1 1024.1 0.0
22/10:30pm 12.4 10.9 9.2 81 1.6 W 7 9 4 5 1024.1 - 0.0
22/10:00pm 13.0 10.8 9.4 79 1.8 W 11 13 6 7 1024.0 1024.0 0.0
22/09:30pm 12.8 11.0 9.6 81 1.6 SW 9 13 5 7 1023.9 - 0.0
22/09:00pm 12.7 12.0 10.2 85 1.3 SSE 4 7 2 4 1023.9 1023.9 0.0
22/08:30pm 13.1 10.8 10.6 85 1.3 SE 13 13 7 7 1024.1 - 0.0
22/08:00pm 14.1 11.6 9.6 74 2.3 SSE 13 13 7 7 1024.3 1024.3 0.0
22/07:30pm 13.9 11.4 9.8 76 2.1 SE 13 15 7 8 1024.0 - 0.0
22/07:00pm 14.6 12.4 9.3 70 2.7 SE 11 13 6 7 1023.7 1023.7 0.0
22/06:30pm 14.4 11.4 9.3 71 2.6 SE 15 17 8 9 1023.4 - 0.0
22/06:00pm 14.9 11.9 9.2 68 2.9 SE 15 17 8 9 1023.2 1023.2 0.0
22/05:30pm 14.5 11.6 9.8 73 2.4 SE 15 17 8 9 1022.9 - 0.0
22/05:00pm 15.3 12.4 9.5 68 3.0 SE 15 17 8 9 1022.7 1022.7 0.0
22/04:30pm 15.6 12.7 9.8 68 3.0 SE 15 17 8 9 1022.5 - 0.0
22/04:00pm 16.1 13.6 9.7 66 3.3 SSE 13 17 7 9 1022.5 1022.5 0.0
22/03:30pm 16.3 13.4 9.8 65 3.4 SE 15 17 8 9 1022.4 - 0.0
22/03:00pm 15.6 13.1 11.1 74 2.4 SSE 15 19 8 10 1022.3 1022.3 0.0
22/02:30pm 15.9 12.9 10.8 71 2.7 S 17 19 9 10 1022.2 - 0.0
22/02:00pm 15.6 12.2 10.7 72 2.6 S 19 24 10 13 1022.2 1022.2 0.0
22/01:30pm 16.1 12.9 11.2 72 2.6 S 19 28 10 15 1022.4 - 0.0
22/01:00pm 15.6 12.7 11.1 74 2.4 S 17 22 9 12 1022.6 1022.6 0.0
22/12:30pm 15.7 13.2 9.7 67 3.1 SSE 13 17 7 9 1022.8 - 0.0
22/12:00pm 16.2 14.1 9.6 65 3.4 S 11 13 6 7 1023.5 1023.5 0.0
22/11:30am 15.1 13.0 8.3 64 3.4 SSW 9 11 5 6 1023.9 - 0.0
22/11:00am 15.4 13.4 8.7 64 3.4 WSW 9 17 5 9 1024.3 1024.3 0.0
22/10:30am 14.8 12.5 8.9 68 3.0 W 11 20 6 11 1024.8 - 0.0
22/10:00am 14.4 12.7 8.4 67 3.0 W 7 9 4 5 1024.9 1024.9 0.0
22/09:30am 13.9 11.7 8.0 67 2.9 W 9 11 5 6 1025.0 - 0.0
22/09:00am 13.6 9.8 7.4 66 3.0 NW 17 24 9 13 1024.4 1024.4 0.0
22/08:30am 12.5 9.0 7.1 69 2.6 NNW 15 20 8 11 1024.3 - 0.0
22/08:00am 11.8 9.4 7.2 73 2.2 NNW 9 13 5 7 1024.4 1024.4 0.0
22/07:30am 10.7 7.9 7.1 78 1.7 NW 11 15 6 8 1024.3 - 0.0
22/07:00am 9.6 6.1 7.0 84 1.2 WNW 15 20 8 11 1024.1 1024.1 0.0
22/06:30am 9.6 6.4 7.0 84 1.2 NW 13 17 7 9 1024.0 - 0.0
22/06:00am 9.5 5.3 7.4 87 1.0 NNW 19 19 10 10 1023.8 1023.8 0.0
22/05:30am 10.0 7.7 7.5 84 1.2 N 9 13 5 7 1023.4 - 0.0
22/05:00am 9.5 6.5 7.6 88 0.9 NNW 13 15 7 8 1023.0 1023.0 0.0
22/04:30am 9.8 7.2 7.9 88 0.9 NNW 11 13 6 7 1023.0 - 0.0
22/04:00am 9.9 7.4 8.2 89 0.8 NNW 11 13 6 7 1023.0 1023.0 0.0
22/03:30am 10.3 8.2 8.2 87 1.0 NNW 9 11 5 6 1022.9 - 0.0
22/03:00am 10.3 8.8 8.4 88 0.9 N 6 7 3 4 1023.0 1023.0 0.0
22/02:30am 10.5 9.4 8.4 87 1.0 WNW 4 9 2 5 1023.1 - 0.0
22/02:00am 10.6 7.9 8.8 89 0.9 WNW 13 13 7 7 1023.1 1023.1 0.0
22/01:30am 11.0 8.3 8.8 86 1.1 NW 13 13 7 7 1023.4 - 0.0
22/01:00am 11.3 9.0 9.1 86 1.1 NW 11 13 6 7 1023.7 1023.7 0.0
22/12:30am 11.7 9.8 9.1 84 1.3 N 9 11 5 6 1023.8 - 0.0
22/12:00am 11.8 10.5 9.2 84 1.3 NNW 6 7 3 4 1023.9 1023.9 0.0
 
Date/Time
EST
Tmp

°C
App
Tmp
°C
Dew
Point
°C
Rel
Hum
%
Delta-T

°C
Wind Press
QNH
hPa
Press
MSL
hPa
Rain
since
9 am
mm
Dir
 
Spd
km/h
Gust
km/h
Spd
kts
Gust
kts
21/11:30pm 11.6 10.2 9.4 86 1.1 WNW 7 7 4 4 1024.0 - 0.0
21/11:00pm 11.8 9.6 9.2 84 1.3 WNW 11 13 6 7 1024.2 1024.2 0.0
21/10:30pm 12.5 9.9 9.3 81 1.6 NNW 13 13 7 7 1024.2 - 0.0
21/10:00pm 12.1 10.3 9.5 84 1.3 SW 9 13 5 7 1024.2 1024.2 0.0
21/09:30pm 11.9 10.2 9.9 87 1.0 SW 9 11 5 6 1024.2 - 0.0
21/09:00pm 12.9 11.3 10.2 84 1.4 WSW 9 13 5 7 1024.3 1024.3 0.0
21/08:30pm 12.4 11.3 10.7 89 0.9 SW 7 9 4 5 1024.3 - 0.0
21/08:00pm 12.9 11.2 10.0 82 1.5 SW 9 11 5 6 1024.2 1024.2 0.0
21/07:30pm 13.0 11.5 10.5 85 1.3 SSW 9 11 5 6 1024.2 - 0.0
21/07:00pm 13.7 11.5 10.8 83 1.5 SSE 13 15 7 8 1024.1 1024.1 0.0
21/06:30pm 13.9 11.4 9.8 76 2.1 SSE 13 15 7 8 1023.9 - 0.0
21/06:00pm 14.2 11.5 10.3 77 2.0 S 15 19 8 10 1023.7 1023.7 0.0
21/05:30pm 14.0 11.1 11.0 82 1.6 S 17 20 9 11 1023.5 - 0.0
21/05:00pm 14.3 11.3 10.7 79 1.9 S 17 22 9 12 1023.5 1023.5 0.0
21/04:30pm 14.3 11.4 10.9 80 1.8 S 17 22 9 12 1023.4 - 0.0
21/04:00pm 14.5 11.0 10.3 76 2.2 S 19 24 10 13 1023.4 1023.4 0.0
21/03:30pm 15.0 11.6 10.4 74 2.4 S 19 24 10 13 1023.3 - 0.0
21/03:00pm 15.1 11.0 10.1 72 2.6 S 22 28 12 15 1023.2 1023.2 0.0
21/02:30pm 15.0 10.9 10.2 73 2.5 S 22 26 12 14 1023.2 - 0.0
21/02:00pm 15.2 10.4 10.2 72 2.6 S 26 33 14 18 1023.4 1023.4 0.0
21/01:30pm 15.2 11.1 10.0 71 2.7 S 22 28 12 15 1023.4 - 0.0
21/01:00pm 15.3 10.7 9.5 68 3.0 S 24 32 13 17 1023.5 1023.5 0.0
21/12:30pm 15.5 11.6 9.5 67 3.1 S 20 24 11 13 1023.9 - 0.0
21/12:00pm 15.2 12.8 7.2 59 3.9 SW 9 13 5 7 1024.7 1024.7 0.0
21/11:30am 15.5 13.0 6.6 55 4.3 WSW 9 17 5 9 1025.2 - 0.0
21/11:00am 16.7 13.2 5.4 47 5.4 WNW 13 17 7 9 1025.8 1025.8 0.0
21/10:30am 15.1 11.5 4.8 50 4.8 WNW 13 22 7 12 1026.2 - 0.0
21/10:00am 14.5 11.6 4.5 51 4.6 W 9 13 5 7 1026.4 1026.4 0.0
21/09:30am 13.7 9.9 3.7 51 4.5 WNW 13 17 7 9 1026.5 - 0.0
21/09:00am 12.3 8.4 3.5 55 3.9 NW 13 17 7 9 1026.7 1026.7 0.0
21/08:30am 10.9 6.6 3.0 58 3.4 NW 15 20 8 11 1026.6 - 0.0
21/08:00am 10.4 6.1 3.5 62 3.0 NW 15 17 8 9 1026.6 1026.6 0.0
21/07:30am 10.2 6.4 3.8 64 2.8 NW 13 15 7 8 1026.4 - 0.0
21/07:00am 9.4 5.5 3.6 67 2.5 NW 13 17 7 9 1026.0 1026.0 0.0
21/06:30am 10.4 7.3 3.8 63 2.9 N 9 13 5 7 1026.1 - 0.0
21/06:00am 9.6 6.6 3.9 67 2.5 NNW 9 15 5 8 1025.9 1025.9 0.0
21/05:30am 9.3 5.4 3.5 67 2.5 W 13 17 7 9 1025.7 - 0.0
21/05:00am 9.1 4.6 4.0 70 2.2 NW 17 19 9 10 1025.5 1025.5 0.0
21/04:30am 8.8 4.7 4.2 73 2.0 NW 15 19 8 10 1025.4 - 0.0
21/04:00am 8.7 4.6 4.6 75 1.8 NW 15 17 8 9 1025.3 1025.3 0.0
21/03:30am 8.8 5.2 5.0 77 1.7 NNW 13 15 7 8 1025.2 - 0.0
21/03:00am 8.9 4.9 5.1 77 1.7 NNW 15 15 8 8 1025.2 1025.2 0.0
21/02:30am 9.2 5.7 5.4 77 1.7 NNW 13 17 7 9 1025.3 - 0.0
21/02:00am 9.3 5.4 5.3 76 1.8 NNW 15 17 8 9 1025.4 1025.4 0.0
21/01:30am 9.5 6.4 5.5 76 1.8 N 11 13 6 7 1025.5 - 0.0
21/01:00am 9.5 6.4 5.5 76 1.8 NW 11 13 6 7 1025.3 1025.3 0.0
21/12:30am 9.6 6.5 5.6 76 1.8 NW 11 13 6 7 1025.6 - 0.0
21/12:00am 9.9 6.8 5.7 75 1.9 NW 11 13 6 7 1025.7 1025.7 0.0
 
Date/Time
EST
Tmp

°C
App
Tmp
°C
Dew
Point
°C
Rel
Hum
%
Delta-T

°C
Wind Press
QNH
hPa
Press
MSL
hPa
Rain
since
9 am
mm
Dir
 
Spd
km/h
Gust
km/h
Spd
kts
Gust
kts
20/11:30pm 10.3 7.4 6.4 77 1.8 NW 11 11 6 6 1026.0 - 0.0
20/11:00pm 10.5 7.7 6.9 78 1.7 WNW 11 13 6 7 1026.2 1026.2 0.0
20/10:30pm 11.2 8.1 7.4 77 1.8 WSW 13 30 7 16 1026.2 - 0.0
20/10:00pm 11.6 8.7 8.1 79 1.7 SSW 13 17 7 9 1026.1 1026.1 0.0
20/09:30pm 12.2 8.6 8.5 78 1.8 SW 17 30 9 16 1026.1 - 0.0
20/09:00pm 12.7 9.9 8.4 75 2.1 SW 13 15 7 8 1026.1 1026.1 0.0
20/08:30pm 12.5 9.1 9.1 80 1.7 S 17 17 9 9 1026.0 - 0.0
20/08:00pm 12.7 9.3 9.3 80 1.7 S 17 20 9 11 1026.1 1026.1 0.0

Latest Capital City Observations: Canberra | Sydney | Melbourne | Brisbane | Adelaide | Perth | Hobart | Darwin

Other Formats:

Comma delimited format used in spreadsheet applications
http://www.bom.gov.au/fwo/IDN60901/IDN60901.94767.axf

JavaScript Object Notation format (JSON) in row-major order
http://www.bom.gov.au/fwo/IDN60901/IDN60901.94767.json